Observations for Trim Market St
| Time | AQI | Temp °C | Hum % | Pres Pa | CO μg/m³ | H₂S μg/m³ | NO μg/m³ | NO₂ μg/m³ | O₃ μg/m³ | SO₂ μg/m³ | PM1 μg/m³ | PM2.5 μg/m³ | PM10 μg/m³ |
|---|---|---|---|---|---|---|---|---|---|---|---|---|---|
| Tuesday 14 July 2026 | |||||||||||||
| 16:34 | 1 | 34 | 25 | 66,372 | 0 | 0 | 0 | 0 | 32.21 | 0 | 3.56 | 7.94 | 11.11 |
| 16:33 | 1 | 34 | 25 | 66,404 | 0 | 0 | 0 | 0 | 32.92 | 0 | 2.85 | 7.39 | 7.52 |
| 16:32 | 1 | 34 | 25 | 66,386 | 0 | 0 | 0 | 0 | 29.75 | 0 | 2.14 | 6.83 | 7.51 |
| 16:31 | 1 | 34 | 25 | 66,394 | 0 | 0 | 0 | 0 | 18.95 | 0 | 3.56 | 6.82 | 7.5 |
| 16:30 | 1 | 34.1 | 25 | 66,400 | 0 | 0 | 0 | 0.38 | 28.62 | 0 | 2.14 | 6.25 | 6.88 |
| 16:28 | 1 | 34.1 | 26 | 66,410 | 0 | 0 | 0 | 1.95 | 32.02 | 0 | 3.56 | 7.89 | 9.3 |
| 16:27 | 1 | 34.1 | 26 | 66,425 | 0 | 0 | 0 | 0 | 29.49 | 0 | 2.14 | 7.33 | 7.52 |
| 16:26 | 1 | 34.1 | 26 | 66,414 | 0 | 0 | 0 | 0.35 | 32.44 | 0 | 3.56 | 7.89 | 8.41 |
| 16:25 | 1 | 34.1 | 26 | 66,423 | 0 | 0 | 0 | 3.23 | 28.22 | 0 | 2.85 | 7.88 | 8.41 |
| 16:24 | 1 | 34.1 | 26 | 66,441 | 0 | 0 | 0 | 0 | 22.17 | 0 | 2.85 | 6.77 | 8.41 |
| 16:22 | 1 | 34.2 | 26 | 66,451 | 0 | 0 | 0 | 4.54 | 29.75 | 0 | 2.85 | 6.75 | 7.43 |
| 16:21 | 1 | 34.2 | 26 | 66,420 | 0 | 0 | 0 | 9.35 | 26.79 | 0 | 4.28 | 7.85 | 11.07 |
| 16:20 | 1 | 34.2 | 26 | 66,429 | 0 | 0.71 | 0 | 3.98 | 34.65 | 0 | 3.56 | 7.87 | 8.41 |
| 16:19 | 1 | 34.2 | 26 | 66,441 | 0 | 0 | 0 | 4.19 | 21.77 | 0 | 3.56 | 6.77 | 7.45 |
| 16:17 | 1 | 34.3 | 26 | 66,422 | 0 | 0 | 0 | 2.18 | 34.77 | 0 | 2.85 | 7.33 | 9.3 |
| 16:11 | 1 | 34.6 | 26 | 66,457 | 0 | 0 | 0 | 0.84 | 29.13 | 0 | 2.14 | 5.7 | 6.27 |
| 16:07 | 1 | 34.6 | 26 | 66,483 | 0 | 0 | 0 | 4.77 | 28.22 | 0 | 2.85 | 7.87 | 11.07 |
| 16:06 | 1 | 34.6 | 26 | 66,480 | 0 | 0 | 0 | 2.78 | 29.5 | 0 | 3.56 | 6.77 | 7.45 |
| 16:02 | 1 | 34.6 | 26 | 66,487 | 0 | 0 | 0 | 0 | 20.1 | 0 | 2.85 | 6.21 | 6.83 |
| 15:57 | 1 | 34.6 | 27 | 66,453 | 0 | 0.78 | 0 | 10.4 | 22.15 | 0 | 3.56 | 7.29 | 10.18 |